Time;durP1;ratioP1;P1;durP2;ratioP2;P2;SDS_P1;SDS_P2;PMS_P1;PMS_P2;Temp;Humidity;BMP_temperature;BMP_pressure;BME280_temperature;BME280_humidity;BME280_pressure;Samples;Min_cycle;Max_cycle;Signal;HPM_P1;HPM_P2
2023/07/22 00:02:07;;;;;;;2.28;1.40;;;22.40;51.40;;;;;;5112883;28;20657;-53
2023/07/22 00:04:34;;;;;;;1.98;1.23;;;22.40;51.40;;;;;;5113282;28;20189;-56
2023/07/22 00:07:01;;;;;;;2.25;1.45;;;22.40;51.50;;;;;;5113230;28;20631;-55
2023/07/22 00:09:28;;;;;;;2.33;1.40;;;22.40;51.40;;;;;;5113236;28;20185;-52
2023/07/22 00:11:56;;;;;;;1.70;1.30;;;22.40;51.40;;;;;;5113127;28;20220;-56
2023/07/22 00:14:23;;;;;;;1.88;1.33;;;22.40;51.40;;;;;;5113028;28;20677;-55
2023/07/22 00:16:52;;;;;;;3.28;1.52;;;22.40;51.40;;;;;;5112650;28;20262;-55
2023/07/22 00:19:19;;;;;;;3.90;1.30;;;22.40;51.40;;;;;;5113023;28;20188;-56
2023/07/22 00:21:47;;;;;;;2.45;1.33;;;22.40;51.30;;;;;;5112742;28;20827;-56
2023/07/22 00:24:14;;;;;;;1.35;1.20;;;22.40;51.30;;;;;;5112963;28;20189;-55
2023/07/22 00:26:42;;;;;;;1.38;1.23;;;22.40;51.30;;;;;;5110612;28;20225;-57
2023/07/22 00:29:09;;;;;;;4.20;1.30;;;22.40;51.40;;;;;;5095102;28;20202;-57
2023/07/22 00:31:37;;;;;;;2.85;1.30;;;22.40;51.30;;;;;;5092436;28;20477;-56
2023/07/22 00:34:05;;;;;;;2.15;1.10;;;22.40;51.30;;;;;;5092381;28;20212;-55
2023/07/22 00:36:32;;;;;;;1.42;1.20;;;22.40;51.30;;;;;;5092439;28;20193;-56
2023/07/22 00:39:00;;;;;;;2.30;1.30;;;22.40;51.30;;;;;;5092424;28;20190;-55
2023/07/22 00:41:27;;;;;;;1.40;1.20;;;22.40;51.30;;;;;;5092452;28;20190;-58
2023/07/22 00:43:54;;;;;;;2.05;1.15;;;22.40;51.30;;;;;;5092705;28;20591;-57
2023/07/22 00:46:22;;;;;;;1.98;1.13;;;22.40;51.30;;;;;;5092170;28;20198;-53
2023/07/22 00:48:50;;;;;;;4.13;1.45;;;22.40;51.30;;;;;;5092574;28;20217;-54
2023/07/22 00:51:22;;;;;;;2.15;1.30;;;22.40;51.30;;;;;;5092155;28;20240;-56
2023/07/22 00:53:49;;;;;;;1.95;1.20;;;22.40;51.30;;;;;;5092337;28;20221;-57
2023/07/22 00:56:16;;;;;;;1.42;1.17;;;22.40;51.30;;;;;;5092049;28;20725;-56
2023/07/22 00:58:43;;;;;;;3.70;1.40;;;22.40;51.20;;;;;;5092467;28;20250;-55
2023/07/22 01:01:10;;;;;;;3.05;1.30;;;22.40;51.20;;;;;;5092303;28;20194;-56
2023/07/22 01:03:38;;;;;;;2.05;1.10;;;22.30;51.20;;;;;;5092268;28;20624;-56
2023/07/22 01:06:05;;;;;;;2.13;1.20;;;22.30;51.10;;;;;;5092277;28;20251;-57
2023/07/22 01:08:34;;;;;;;1.77;1.13;;;22.40;51.10;;;;;;5092366;28;20218;-52
2023/07/22 01:11:01;;;;;;;1.52;1.20;;;22.30;51.00;;;;;;5092222;28;20222;-56
2023/07/22 01:13:28;;;;;;;1.50;1.10;;;22.40;51.10;;;;;;5095026;28;20252;-57
2023/07/22 01:15:55;;;;;;;1.20;1.10;;;22.30;51.00;;;;;;5095654;28;20253;-56
2023/07/22 01:18:23;;;;;;;4.10;1.30;;;22.30;51.00;;;;;;5096168;28;20218;-54
2023/07/22 01:20:50;;;;;;;1.95;1.20;;;22.30;51.10;;;;;;5095697;28;20190;-58
2023/07/22 01:23:19;;;;;;;1.52;0.95;;;22.30;51.00;;;;;;5096076;28;20213;-56
2023/07/22 01:25:46;;;;;;;1.60;1.10;;;22.30;50.90;;;;;;5095971;28;20273;-55
2023/07/22 01:28:13;;;;;;;1.52;1.10;;;22.30;50.90;;;;;;5095655;28;20710;-58
2023/07/22 01:30:40;;;;;;;1.48;1.00;;;22.30;51.00;;;;;;5095608;28;20229;-58
2023/07/22 01:33:12;;;;;;;2.03;1.20;;;22.30;50.90;;;;;;5095610;28;20722;-54
2023/07/22 01:35:39;;;;;;;1.10;1.00;;;22.30;50.90;;;;;;5095332;28;20753;-55
2023/07/22 01:38:07;;;;;;;2.13;0.88;;;22.30;50.90;;;;;;5095360;28;20666;-57
2023/07/22 01:40:36;;;;;;;2.65;1.10;;;22.30;50.90;;;;;;5095683;28;20601;-56
2023/07/22 01:43:03;;;;;;;1.95;1.33;;;22.30;50.90;;;;;;5095698;28;20257;-52
2023/07/22 01:45:30;;;;;;;1.73;1.10;;;22.30;50.90;;;;;;5095456;28;20261;-56
2023/07/22 01:47:58;;;;;;;1.10;1.00;;;22.30;50.90;;;;;;5095266;28;20710;-56
2023/07/22 01:50:25;;;;;;;1.52;1.27;;;22.30;50.90;;;;;;5095415;28;20182;-56
2023/07/22 01:52:52;;;;;;;2.53;1.25;;;22.30;50.90;;;;;;5095576;28;20221;-56
2023/07/22 01:55:19;;;;;;;2.10;1.13;;;22.30;51.60;;;;;;5095045;28;20214;-56
2023/07/22 01:57:48;;;;;;;1.63;1.20;;;22.30;50.90;;;;;;5095300;28;20222;-54
2023/07/22 02:00:16;;;;;;;2.40;1.00;;;22.30;50.90;;;;;;5095177;28;20221;-53
2023/07/22 02:02:43;;;;;;;1.20;1.00;;;22.30;50.90;;;;;;5094899;28;20225;-54
2023/07/22 02:05:11;;;;;;;1.63;0.95;;;22.30;50.80;;;;;;5095181;28;20229;-57
2023/07/22 02:07:38;;;;;;;1.30;1.20;;;22.30;50.80;;;;;;5094785;28;20655;-55
2023/07/22 02:10:06;;;;;;;1.25;0.85;;;22.30;50.80;;;;;;5095131;28;20221;-56
2023/07/22 02:12:33;;;;;;;1.95;1.20;;;22.20;50.70;;;;;;5095068;28;20249;-54
2023/07/22 02:15:02;;;;;;;1.70;1.00;;;22.30;50.90;;;;;;5094870;28;20210;-54
2023/07/22 02:17:30;;;;;;;1.10;0.90;;;22.30;50.80;;;;;;5094612;28;20772;-56
2023/07/22 02:19:58;;;;;;;1.58;1.05;;;22.30;50.80;;;;;;5094840;28;20661;-55
2023/07/22 02:23:05;;;;;;;0.85;0.82;;;22.30;50.80;;;;;;5094824;28;20220;-55
2023/07/22 02:25:32;;;;;;;2.20;1.00;;;22.20;50.70;;;;;;5094449;28;20186;-54
2023/07/22 02:28:00;;;;;;;2.90;1.00;;;22.20;50.70;;;;;;5094398;28;20256;-53
2023/07/22 02:30:28;;;;;;;4.10;1.00;;;22.20;50.70;;;;;;5094281;28;20265;-55
2023/07/22 02:32:56;;;;;;;2.33;1.20;;;22.20;50.70;;;;;;5094404;28;20267;-53
2023/07/22 02:35:23;;;;;;;1.92;1.25;;;22.20;50.70;;;;;;5094434;28;20213;-53
2023/07/22 02:37:50;;;;;;;1.42;0.80;;;22.30;50.80;;;;;;5094684;28;20220;-55
2023/07/22 02:40:17;;;;;;;2.33;1.00;;;22.30;50.80;;;;;;5094565;28;20190;-57
2023/07/22 02:42:44;;;;;;;1.73;1.05;;;22.20;50.80;;;;;;5094441;28;20228;-55
2023/07/22 02:45:12;;;;;;;2.55;1.10;;;22.20;50.80;;;;;;5094473;28;20233;-55
2023/07/22 02:47:41;;;;;;;1.25;1.00;;;22.20;50.80;;;;;;5094311;28;20267;-55
2023/07/22 02:50:09;;;;;;;1.08;0.98;;;22.20;50.80;;;;;;5094248;28;20182;-54
2023/07/22 02:52:37;;;;;;;3.35;1.10;;;22.20;50.80;;;;;;5093935;28;20222;-56
2023/07/22 02:55:10;;;;;;;0.90;0.88;;;22.30;50.90;;;;;;5094030;28;20252;-57
2023/07/22 02:57:38;;;;;;;1.55;1.00;;;22.20;50.70;;;;;;5094123;28;20326;-55
2023/07/22 03:00:08;;;;;;;1.98;1.25;;;22.20;50.80;;;;;;5094123;28;20248;-55
2023/07/22 03:02:35;;;;;;;2.47;1.13;;;22.20;50.70;;;;;;5094137;28;20230;-57
2023/07/22 03:05:07;;;;;;;2.00;1.20;;;22.20;50.70;;;;;;5093682;28;20196;-56
2023/07/22 03:07:35;;;;;;;2.45;1.17;;;22.20;50.80;;;;;;5093585;28;20722;-56
2023/07/22 03:10:02;;;;;;;2.03;1.13;;;22.20;50.70;;;;;;5093938;28;20268;-55
2023/07/22 03:12:29;;;;;;;2.20;1.27;;;22.20;51.40;;;;;;5093535;28;20267;-58
2023/07/22 03:14:57;;;;;;;1.00;0.90;;;22.20;50.70;;;;;;5093766;28;20182;-56
2023/07/22 03:17:24;;;;;;;1.55;1.00;;;22.20;50.70;;;;;;5093717;28;20228;-56
2023/07/22 03:19:51;;;;;;;1.63;1.13;;;22.20;50.70;;;;;;5093357;28;20264;-56
2023/07/22 03:22:20;;;;;;;2.28;1.20;;;22.20;50.70;;;;;;5093677;28;20229;-57
2023/07/22 03:24:48;;;;;;;2.05;1.20;;;22.20;50.80;;;;;;5093734;28;20188;-56
2023/07/22 03:27:17;;;;;;;3.00;1.10;;;22.20;50.80;;;;;;5093250;28;20642;-54
2023/07/22 03:29:44;;;;;;;2.13;0.90;;;22.20;50.80;;;;;;5093024;28;20742;-54
2023/07/22 03:32:11;;;;;;;1.95;1.25;;;22.20;50.70;;;;;;5093642;28;20214;-55
2023/07/22 03:34:39;;;;;;;1.45;1.08;;;22.20;50.70;;;;;;5092989;28;20214;-53
2023/07/22 03:37:06;;;;;;;1.00;1.00;;;22.20;50.70;;;;;;5092855;28;20275;-50
2023/07/22 03:39:35;;;;;;;1.40;1.02;;;22.20;50.70;;;;;;5093033;28;20200;-55
2023/07/22 03:42:03;;;;;;;1.48;1.10;;;22.20;50.70;;;;;;5093258;28;20243;-55
2023/07/22 03:44:30;;;;;;;2.75;0.95;;;22.20;50.70;;;;;;5093324;28;20182;-56
2023/07/22 03:46:58;;;;;;;2.95;1.02;;;22.20;50.80;;;;;;5093137;28;20392;-55
2023/07/22 03:49:25;;;;;;;1.88;0.95;;;22.20;50.70;;;;;;5092923;28;20230;-53
2023/07/22 03:51:52;;;;;;;0.85;0.80;;;22.20;50.80;;;;;;5093018;28;20186;-56
2023/07/22 03:54:19;;;;;;;2.92;1.08;;;22.20;50.70;;;;;;5092831;28;20672;-54
2023/07/22 03:56:48;;;;;;;1.52;1.10;;;22.20;50.70;;;;;;5092905;28;20213;-57
2023/07/22 03:59:15;;;;;;;2.85;0.95;;;22.20;50.70;;;;;;5093240;28;20275;-54
2023/07/22 04:01:43;;;;;;;2.63;1.20;;;22.20;50.70;;;;;;5092991;28;20193;-56
2023/07/22 04:04:10;;;;;;;1.17;0.75;;;22.20;50.80;;;;;;5093140;28;20233;-54
2023/07/22 04:06:37;;;;;;;1.17;0.98;;;22.20;50.70;;;;;;5092892;28;20197;-56
2023/07/22 04:09:04;;;;;;;1.48;1.08;;;22.20;50.80;;;;;;5092789;28;20221;-57
2023/07/22 04:11:31;;;;;;;3.13;1.08;;;22.20;50.80;;;;;;5092843;28;20193;-56
2023/07/22 04:14:00;;;;;;;1.25;1.00;;;22.20;50.80;;;;;;5092724;28;20222;-53
2023/07/22 04:16:27;;;;;;;1.58;1.00;;;22.20;50.80;;;;;;5092349;28;20214;-52
2023/07/22 04:18:54;;;;;;;1.20;0.82;;;22.20;50.80;;;;;;5092931;28;20249;-57
2023/07/22 04:21:22;;;;;;;2.08;1.10;;;22.10;50.70;;;;;;5092718;28;20186;-55
2023/07/22 04:23:49;;;;;;;0.70;0.70;;;22.10;50.70;;;;;;5092849;28;20291;-55
2023/07/22 04:26:16;;;;;;;2.55;1.33;;;22.10;50.70;;;;;;5092607;28;20190;-55
2023/07/22 04:28:44;;;;;;;1.52;1.00;;;22.20;50.90;;;;;;5092799;28;20218;-55
2023/07/22 04:31:12;;;;;;;1.50;1.00;;;22.10;50.70;;;;;;5092157;28;20256;-54
2023/07/22 04:33:41;;;;;;;1.52;1.13;;;22.10;50.70;;;;;;5092760;28;20218;-56
2023/07/22 04:36:08;;;;;;;1.50;1.10;;;22.10;50.80;;;;;;5092404;28;20221;-54
2023/07/22 04:38:36;;;;;;;3.53;0.90;;;22.10;50.80;;;;;;5092234;28;20213;-52
2023/07/22 04:41:04;;;;;;;1.65;1.13;;;22.10;50.70;;;;;;5092595;28;20188;-54
2023/07/22 04:43:32;;;;;;;1.90;1.10;;;22.20;50.80;;;;;;5092310;28;20231;-55
2023/07/22 04:45:59;;;;;;;1.77;0.98;;;22.10;50.70;;;;;;5092757;28;20190;-56
2023/07/22 04:48:28;;;;;;;2.53;1.05;;;22.10;50.80;;;;;;5096692;28;20252;-55
2023/07/22 04:50:55;;;;;;;2.50;1.27;;;22.10;50.80;;;;;;5096271;28;20630;-54
2023/07/22 04:53:23;;;;;;;2.22;1.10;;;22.10;50.80;;;;;;5096340;28;20324;-55
2023/07/22 04:55:50;;;;;;;2.00;1.05;;;22.10;50.80;;;;;;5096142;28;20220;-56
2023/07/22 04:58:17;;;;;;;1.42;0.90;;;22.10;50.80;;;;;;5096188;28;20221;-56
2023/07/22 05:00:44;;;;;;;2.05;0.98;;;22.10;50.80;;;;;;5096412;28;20182;-57
2023/07/22 05:03:11;;;;;;;3.72;1.15;;;22.10;50.80;;;;;;5096102;28;20297;-55
2023/07/22 05:05:39;;;;;;;1.38;0.82;;;22.10;50.90;;;;;;5096253;28;20190;-55
2023/07/22 05:08:07;;;;;;;1.45;1.00;;;22.10;50.80;;;;;;5095922;28;20218;-56
2023/07/22 05:10:34;;;;;;;1.55;1.00;;;22.10;50.90;;;;;;5095909;28;20725;-52
2023/07/22 05:13:01;;;;;;;0.95;0.88;;;22.10;50.80;;;;;;5095947;28;20707;-53
2023/07/22 05:15:28;;;;;;;1.65;1.00;;;22.10;50.90;;;;;;5095748;28;20192;-58
2023/07/22 05:17:55;;;;;;;1.27;1.05;;;22.10;50.90;;;;;;5096069;28;20250;-56
2023/07/22 05:20:22;;;;;;;2.35;1.00;;;22.10;50.90;;;;;;5096100;28;20201;-52
2023/07/22 05:22:51;;;;;;;1.65;1.10;;;22.00;50.80;;;;;;5095775;28;20214;-58
2023/07/22 05:25:19;;;;;;;2.75;1.30;;;22.10;50.90;;;;;;5095618;28;20190;-53
2023/07/22 05:27:46;;;;;;;1.88;1.10;;;22.10;50.90;;;;;;5095858;28;20221;-55
2023/07/22 05:30:13;;;;;;;1.70;1.05;;;22.10;50.90;;;;;;5095513;28;20317;-55
2023/07/22 05:32:40;;;;;;;1.00;0.90;;;22.10;51.00;;;;;;5095629;28;20257;-55
2023/07/22 05:35:08;;;;;;;2.17;1.08;;;22.00;50.90;;;;;;5095471;28;20186;-54
2023/07/22 05:37:36;;;;;;;1.90;1.42;;;22.00;50.90;;;;;;5095292;28;20726;-57
2023/07/22 05:40:05;;;;;;;2.45;1.30;;;22.10;51.00;;;;;;5095729;28;20190;-56
2023/07/22 05:42:32;;;;;;;1.67;1.23;;;22.10;51.10;;;;;;5095260;28;20217;-57
2023/07/22 05:45:01;;;;;;;2.00;1.15;;;22.10;51.00;;;;;;5095591;28;20205;-58
2023/07/22 05:47:28;;;;;;;1.50;1.00;;;22.10;51.10;;;;;;5095181;28;20711;-55
2023/07/22 05:49:55;;;;;;;1.30;1.02;;;22.10;51.00;;;;;;5095375;28;20190;-55
2023/07/22 05:52:22;;;;;;;2.13;1.20;;;22.10;51.10;;;;;;5095478;28;20663;-55
2023/07/22 05:54:49;;;;;;;1.15;1.05;;;22.00;51.00;;;;;;5095090;28;20225;-54
2023/07/22 05:57:18;;;;;;;2.58;1.02;;;22.10;51.10;;;;;;5094908;28;20695;-53
2023/07/22 05:59:45;;;;;;;1.52;1.02;;;22.00;51.00;;;;;;5094562;28;20232;-55
2023/07/22 06:02:18;;;;;;;1.15;1.05;;;22.00;51.10;;;;;;5095143;28;20190;-53
2023/07/22 06:04:45;;;;;;;1.55;1.08;;;22.00;51.00;;;;;;5094892;28;20226;-55
2023/07/22 06:07:12;;;;;;;1.80;1.00;;;22.10;51.10;;;;;;5095039;28;20222;-57
2023/07/22 06:09:40;;;;;;;2.35;1.20;;;22.10;51.10;;;;;;5094837;28;20182;-56
2023/07/22 06:12:07;;;;;;;2.60;1.20;;;22.00;51.10;;;;;;5094977;28;20599;-55
2023/07/22 06:14:36;;;;;;;1.20;1.10;;;22.00;51.10;;;;;;5094771;28;20190;-56
2023/07/22 06:17:03;;;;;;;1.38;1.13;;;22.00;51.10;;;;;;5094859;28;20245;-56
2023/07/22 06:19:31;;;;;;;1.98;1.00;;;22.00;51.20;;;;;;5094545;28;20194;-55
2023/07/22 06:22:13;;;;;;;1.42;0.90;;;22.00;51.10;;;;;;5094527;28;20183;-55
2023/07/22 06:24:40;;;;;;;2.13;1.30;;;22.00;51.20;;;;;;5091695;28;20194;-55
2023/07/22 06:27:07;;;;;;;2.92;1.40;;;22.10;51.20;;;;;;5094672;28;20186;-56
2023/07/22 06:29:35;;;;;;;2.95;1.20;;;22.00;51.20;;;;;;5094556;28;20294;-54
2023/07/22 06:32:03;;;;;;;1.85;1.40;;;22.10;51.30;;;;;;5094912;28;20251;-57
2023/07/22 06:34:30;;;;;;;3.03;1.27;;;22.10;51.30;;;;;;5094830;28;20233;-57
2023/07/22 06:36:57;;;;;;;1.65;1.20;;;22.00;51.30;;;;;;5094490;28;20253;-56
2023/07/22 06:39:24;;;;;;;1.75;1.15;;;22.00;51.20;;;;;;5094795;28;20691;-56
2023/07/22 06:41:51;;;;;;;1.40;1.17;;;22.00;51.30;;;;;;5094506;28;20281;-54
2023/07/22 06:44:18;;;;;;;2.22;1.20;;;22.00;51.30;;;;;;5094614;28;20218;-52
2023/07/22 06:46:47;;;;;;;1.77;1.40;;;22.10;51.40;;;;;;5094051;28;20190;-56
2023/07/22 06:49:14;;;;;;;2.25;1.35;;;22.00;51.40;;;;;;5094277;28;20746;-55
2023/07/22 06:51:41;;;;;;;1.70;1.52;;;22.00;51.40;;;;;;5094313;28;20198;-56
2023/07/22 06:54:08;;;;;;;2.22;1.55;;;22.00;51.40;;;;;;5094142;28;20267;-56
2023/07/22 06:56:35;;;;;;;2.45;1.20;;;22.10;51.50;;;;;;5094164;28;20210;-55
2023/07/22 06:59:02;;;;;;;2.00;1.20;;;22.00;51.40;;;;;;5094299;28;20218;-56
2023/07/22 07:01:30;;;;;;;1.85;1.30;;;22.10;51.60;;;;;;5093774;28;20671;-55
2023/07/22 07:03:58;;;;;;;1.40;1.30;;;22.10;51.60;;;;;;5094192;28;20225;-55
2023/07/22 07:06:25;;;;;;;2.85;1.40;;;22.10;51.60;;;;;;5093674;28;20186;-56
2023/07/22 07:08:53;;;;;;;1.85;1.35;;;22.10;51.70;;;;;;5093791;28;20302;-53
2023/07/22 07:11:20;;;;;;;1.52;1.30;;;22.10;51.70;;;;;;5092814;28;20197;-56
2023/07/22 07:13:47;;;;;;;1.40;1.13;;;22.00;52.20;;;;;;5093698;28;20762;-57
2023/07/22 07:16:24;;;;;;;1.77;1.50;;;22.10;51.70;;;;;;5093707;28;20182;-55
2023/07/22 07:18:51;;;;;;;5.38;1.48;;;22.00;51.60;;;;;;5093894;28;20220;-55
2023/07/22 07:21:20;;;;;;;2.38;1.10;;;22.10;51.70;;;;;;5093726;28;20269;-56
2023/07/22 07:23:48;;;;;;;1.70;1.30;;;22.00;51.60;;;;;;5093767;28;20225;-56
2023/07/22 07:26:15;;;;;;;2.80;1.30;;;22.10;51.70;;;;;;5093592;28;20186;-57
2023/07/22 07:28:43;;;;;;;2.22;1.40;;;22.10;51.70;;;;;;5093602;28;20245;-56
2023/07/22 07:31:10;;;;;;;2.38;1.40;;;22.00;51.70;;;;;;5093186;28;20230;-53
2023/07/22 07:33:37;;;;;;;2.67;1.48;;;22.00;51.70;;;;;;5093649;28;20218;-57
2023/07/22 07:36:05;;;;;;;3.45;1.67;;;22.10;51.80;;;;;;5093280;28;20198;-52
2023/07/22 07:38:33;;;;;;;1.92;1.48;;;22.10;52.50;;;;;;5093338;28;20241;-53
2023/07/22 07:41:02;;;;;;;2.45;1.30;;;22.10;51.90;;;;;;5093225;28;20186;-56
2023/07/22 07:43:30;;;;;;;2.55;1.33;;;22.00;51.80;;;;;;5093007;28;20256;-55
2023/07/22 07:46:17;;;;;;;2.53;1.20;;;22.00;51.80;;;;;;5093204;28;20201;-56
2023/07/22 07:48:45;;;;;;;2.90;1.50;;;22.10;52.00;;;;;;5093269;28;20222;-57
2023/07/22 07:51:14;;;;;;;2.78;1.48;;;22.10;52.00;;;;;;5093099;28;20186;-55
2023/07/22 07:53:43;;;;;;;3.70;1.25;;;22.10;51.90;;;;;;5092935;28;20718;-56
2023/07/22 07:56:11;;;;;;;2.80;1.70;;;22.10;52.00;;;;;;5092642;28;20198;-55
2023/07/22 07:58:39;;;;;;;3.20;1.58;;;22.00;51.90;;;;;;5092702;28;20751;-55
2023/07/22 08:01:06;;;;;;;2.17;1.45;;;22.10;52.00;;;;;;5092603;28;20647;-55
2023/07/22 08:03:35;;;;;;;2.13;1.60;;;22.00;51.90;;;;;;5093052;28;20254;-55
2023/07/22 08:06:03;;;;;;;2.67;1.52;;;22.10;52.00;;;;;;5092860;28;20247;-55
2023/07/22 08:08:30;;;;;;;2.42;1.67;;;22.10;52.00;;;;;;5092893;28;20249;-56
2023/07/22 08:11:03;;;;;;;2.65;1.67;;;22.10;52.00;;;;;;5092774;28;20190;-54
2023/07/22 08:13:33;;;;;;;3.45;1.80;;;22.10;52.00;;;;;;5092812;28;20218;-52
2023/07/22 08:16:00;;;;;;;3.67;2.05;;;22.10;52.00;;;;;;5092377;28;20186;-54
2023/07/22 08:18:28;;;;;;;3.35;1.98;;;22.10;52.00;;;;;;5092692;28;20299;-55
2023/07/22 08:20:56;;;;;;;2.72;1.80;;;22.10;52.00;;;;;;5092099;28;20335;-54
2023/07/22 08:23:24;;;;;;;2.25;1.70;;;22.10;52.20;;;;;;5092792;28;20249;-54
2023/07/22 08:25:51;;;;;;;2.50;1.80;;;22.10;52.00;;;;;;5092584;28;20221;-54
2023/07/22 08:28:19;;;;;;;2.08;1.85;;;22.10;52.10;;;;;;5092273;28;20283;-58
2023/07/22 08:30:48;;;;;;;3.45;2.10;;;22.10;52.00;;;;;;5092209;28;20272;-56
2023/07/22 08:33:17;;;;;;;3.45;2.22;;;22.10;52.10;;;;;;5092616;28;20221;-56
2023/07/22 08:35:45;;;;;;;2.53;2.00;;;22.10;52.10;;;;;;5092469;28;20194;-55
2023/07/22 08:38:12;;;;;;;4.72;2.30;;;22.10;52.10;;;;;;5092835;28;20256;-55
2023/07/22 08:40:57;;;;;;;2.65;1.98;;;22.10;52.10;;;;;;5092516;28;20280;-56
2023/07/22 08:43:28;;;;;;;2.83;2.10;;;22.10;52.20;;;;;;5091398;28;20254;-54
2023/07/22 08:45:56;;;;;;;4.22;2.40;;;22.10;52.10;;;;;;5092055;28;20639;-54
2023/07/22 08:48:27;;;;;;;5.03;2.13;;;22.10;52.10;;;;;;5092112;28;20218;-55
2023/07/22 08:50:57;;;;;;;4.32;1.95;;;22.10;52.10;;;;;;5092369;28;20217;-54
2023/07/22 08:53:25;;;;;;;2.63;2.00;;;22.10;52.10;;;;;;5092069;28;20218;-56
2023/07/22 08:55:53;;;;;;;4.30;2.47;;;22.10;52.10;;;;;;5092574;28;20190;-56
2023/07/22 08:58:38;;;;;;;2.80;2.03;;;22.10;52.20;;;;;;5091951;28;20230;-56
2023/07/22 09:01:07;;;;;;;5.65;2.13;;;22.10;52.10;;;;;;5091012;28;20189;-54
2023/07/22 09:03:34;;;;;;;4.35;2.17;;;22.00;52.10;;;;;;5092262;28;20267;-54
2023/07/22 09:06:02;;;;;;;3.28;2.20;;;22.10;52.20;;;;;;5092152;28;20193;-52
2023/07/22 09:08:29;;;;;;;3.47;2.45;;;22.10;52.20;;;;;;5091937;28;20224;-56
2023/07/22 09:10:57;;;;;;;2.92;2.35;;;22.10;52.20;;;;;;5092105;28;20190;-53
2023/07/22 09:13:25;;;;;;;4.05;2.35;;;22.10;52.20;;;;;;5092218;28;20223;-57
2023/07/22 09:15:54;;;;;;;3.03;2.38;;;22.10;52.20;;;;;;5091789;28;20218;-53
2023/07/22 09:18:22;;;;;;;3.33;2.33;;;22.10;52.20;;;;;;5092098;28;20234;-54
2023/07/22 09:20:58;;;;;;;4.45;2.35;;;22.10;52.20;;;;;;5092097;28;20197;-55
2023/07/22 09:23:34;;;;;;;5.57;2.88;;;22.10;52.10;;;;;;5092193;28;20248;-54
2023/07/22 09:26:10;;;;;;;3.42;2.33;;;22.10;52.20;;;;;;5092035;28;20373;-55
2023/07/22 09:28:50;;;;;;;5.78;2.65;;;22.10;52.20;;;;;;5092130;28;20252;-57
2023/07/22 09:31:17;;;;;;;7.45;2.90;;;22.10;52.20;;;;;;5091833;28;20316;-53
2023/07/22 09:33:45;;;;;;;3.08;2.63;;;22.10;52.20;;;;;;5093509;28;20300;-55
2023/07/22 09:36:13;;;;;;;4.30;2.65;;;22.10;52.20;;;;;;5095922;28;20256;-57
2023/07/22 09:38:40;;;;;;;4.30;2.65;;;22.10;52.20;;;;;;5095700;28;20312;-56
2023/07/22 09:41:08;;;;;;;3.90;2.95;;;22.10;52.10;;;;;;5095589;28;20194;-56
2023/07/22 09:43:39;;;;;;;4.50;3.20;;;22.10;52.10;;;;;;5095602;28;20210;-55
2023/07/22 09:46:11;;;;;;;7.47;3.33;;;22.10;52.10;;;;;;5095522;28;20190;-57
2023/07/22 09:48:42;;;;;;;4.85;3.53;;;22.10;52.10;;;;;;5095512;28;20218;-57
2023/07/22 09:51:16;;;;;;;6.40;3.67;;;22.10;52.10;;;;;;5095401;28;20201;-53
2023/07/22 09:53:46;;;;;;;5.00;3.45;;;22.10;52.20;;;;;;5095153;28;20256;-58
2023/07/22 09:56:14;;;;;;;6.22;3.13;;;22.10;52.20;;;;;;5095272;28;20236;-57
2023/07/22 09:58:45;;;;;;;5.07;3.65;;;22.10;52.10;;;;;;5094993;28;20745;-57
2023/07/22 10:01:16;;;;;;;4.38;3.22;;;22.10;52.20;;;;;;5095288;28;20244;-57
2023/07/22 10:03:46;;;;;;;4.82;3.22;;;22.10;52.20;;;;;;5095305;28;20221;-56
2023/07/22 10:06:16;;;;;;;7.25;4.18;;;22.10;52.10;;;;;;5095124;28;20269;-52
2023/07/22 10:08:47;;;;;;;5.05;3.83;;;22.10;52.80;;;;;;5095207;28;20283;-56
2023/07/22 10:11:16;;;;;;;7.05;4.00;;;22.10;52.20;;;;;;5095136;28;20208;-55
2023/07/22 10:13:43;;;;;;;6.35;3.97;;;22.10;52.10;;;;;;5094723;28;20213;-56
2023/07/22 10:16:11;;;;;;;7.25;4.45;;;22.10;52.10;;;;;;5094873;28;20230;-56
2023/07/22 10:18:41;;;;;;;5.95;3.80;;;22.10;52.20;;;;;;5094888;28;20315;-56
2023/07/22 10:21:09;;;;;;;6.53;3.53;;;22.10;52.20;;;;;;5094558;28;20222;-56
2023/07/22 10:27:01;;;;;;;5.85;4.13;;;22.10;52.10;;;;;;5094489;28;20195;-58
2023/07/22 10:29:30;;;;;;;5.78;3.70;;;22.10;52.10;;;;;;5094573;28;20275;-53
2023/07/22 10:31:57;;;;;;;6.78;3.80;;;22.10;52.20;;;;;;5094660;28;20192;-55
2023/07/22 10:34:25;;;;;;;7.70;4.10;;;22.10;52.10;;;;;;5094468;28;20214;-56
2023/07/22 10:36:52;;;;;;;6.13;3.90;;;22.10;52.10;;;;;;5094520;28;20190;-56
2023/07/22 10:39:27;;;;;;;7.25;3.97;;;22.10;52.20;;;;;;5094224;28;20762;-56
2023/07/22 10:42:04;;;;;;;5.45;4.13;;;22.10;52.20;;;;;;5094245;28;20290;-54
2023/07/22 10:44:33;;;;;;;5.57;3.67;;;22.10;52.20;;;;;;5094362;28;20221;-54
2023/07/22 10:47:00;;;;;;;5.07;3.83;;;22.10;52.20;;;;;;5094349;28;20277;-56
2023/07/22 10:49:43;;;;;;;5.30;3.97;;;22.10;52.20;;;;;;5094500;28;20730;-55
2023/07/22 10:52:13;;;;;;;5.88;4.65;;;22.10;52.20;;;;;;5094264;28;20280;-55
2023/07/22 10:54:40;;;;;;;7.13;4.30;;;22.20;52.30;;;;;;5094451;28;20214;-53
2023/07/22 10:57:26;;;;;;;5.22;4.10;;;22.20;52.30;;;;;;5094066;28;20194;-54
2023/07/22 10:59:53;;;;;;;7.10;3.80;;;22.20;52.30;;;;;;5094325;28;20221;-55
2023/07/22 11:02:26;;;;;;;6.57;4.20;;;22.10;52.20;;;;;;5093772;28;20190;-54
2023/07/22 11:04:53;;;;;;;5.45;3.88;;;22.20;52.30;;;;;;5094164;28;20218;-56
2023/07/22 11:07:32;;;;;;;6.85;4.20;;;22.20;52.30;;;;;;5093659;28;20722;-54
2023/07/22 11:10:11;;;;;;;4.53;3.50;;;22.20;52.30;;;;;;5093634;28;20308;-56
2023/07/22 11:12:40;;;;;;;4.95;3.47;;;22.20;52.30;;;;;;5093746;28;20219;-55
2023/07/22 11:15:08;;;;;;;6.22;3.88;;;22.20;52.30;;;;;;5093506;28;20278;-55
2023/07/22 11:17:38;;;;;;;6.18;4.30;;;22.20;52.30;;;;;;5093701;28;20198;-55
2023/07/22 11:20:07;;;;;;;5.95;4.07;;;22.20;52.30;;;;;;5093428;28;20672;-55
2023/07/22 11:22:37;;;;;;;8.18;3.88;;;22.20;52.30;;;;;;5093714;28;20274;-58
2023/07/22 11:25:04;;;;;;;5.40;3.90;;;22.20;52.20;;;;;;5093327;28;20183;-54
2023/07/22 11:27:32;;;;;;;5.93;3.90;;;22.20;53.00;;;;;;5093546;28;20190;-55
2023/07/22 11:30:03;;;;;;;6.57;3.58;;;22.20;52.30;;;;;;5093314;28;20608;-56
2023/07/22 11:32:30;;;;;;;4.63;3.55;;;22.20;52.30;;;;;;5093141;28;20193;-57
2023/07/22 11:34:57;;;;;;;6.65;3.80;;;22.20;52.30;;;;;;5093685;28;20256;-57
2023/07/22 11:37:24;;;;;;;5.22;3.33;;;22.20;52.30;;;;;;5093354;28;20241;-54
2023/07/22 11:39:51;;;;;;;5.57;3.90;;;22.20;52.20;;;;;;5093427;28;20665;-56
2023/07/22 11:42:19;;;;;;;7.13;3.65;;;22.20;52.20;;;;;;5093234;28;20228;-56
2023/07/22 11:44:46;;;;;;;5.10;3.75;;;22.20;52.20;;;;;;5093309;28;20271;-56
2023/07/22 11:47:15;;;;;;;7.97;3.38;;;22.20;52.20;;;;;;5093129;28;20251;-55
2023/07/22 11:49:43;;;;;;;5.05;3.33;;;22.20;52.20;;;;;;5093363;28;20221;-56
2023/07/22 11:52:12;;;;;;;5.05;3.65;;;22.20;52.10;;;;;;5093155;28;20186;-52
2023/07/22 11:54:42;;;;;;;5.47;3.42;;;22.20;52.20;;;;;;5093239;28;20213;-52
2023/07/22 11:57:14;;;;;;;6.80;3.65;;;22.20;52.10;;;;;;5092148;28;20644;-58
2023/07/22 11:59:45;;;;;;;4.40;3.08;;;22.20;52.10;;;;;;5092752;28;20233;-56
2023/07/22 12:02:16;;;;;;;4.68;3.30;;;22.20;52.10;;;;;;5092986;28;20174;-57
2023/07/22 12:04:44;;;;;;;5.78;3.60;;;22.20;52.10;;;;;;5092970;28;20214;-55
2023/07/22 12:07:24;;;;;;;4.28;3.33;;;22.10;52.00;;;;;;5092837;28;20218;-58
2023/07/22 12:09:52;;;;;;;6.40;3.72;;;22.20;52.10;;;;;;5092700;28;20760;-52
2023/07/22 12:12:19;;;;;;;5.70;3.50;;;22.20;52.10;;;;;;5092830;28;20210;-56
2023/07/22 12:14:46;;;;;;;5.07;3.45;;;22.20;52.10;;;;;;5092948;28;20614;-55
2023/07/22 12:17:15;;;;;;;4.47;3.38;;;22.20;52.10;;;;;;5092376;28;20629;-58
2023/07/22 12:19:52;;;;;;;5.70;3.70;;;22.20;52.10;;;;;;5092807;28;20317;-54
2023/07/22 12:22:20;;;;;;;6.53;3.38;;;22.20;52.10;;;;;;5092677;28;20189;-57
2023/07/22 12:24:48;;;;;;;5.35;3.30;;;22.20;52.10;;;;;;5092400;28;20267;-54
2023/07/22 12:27:16;;;;;;;4.80;3.08;;;22.20;52.10;;;;;;5092571;28;20217;-57
2023/07/22 12:29:43;;;;;;;3.88;3.25;;;22.20;52.10;;;;;;5092097;28;20291;-56
2023/07/22 12:32:10;;;;;;;4.10;3.22;;;22.20;52.10;;;;;;5092475;28;20688;-56
2023/07/22 12:34:39;;;;;;;3.80;2.90;;;22.20;52.10;;;;;;5092613;28;20296;-55
2023/07/22 12:37:06;;;;;;;6.82;3.65;;;22.20;52.10;;;;;;5092165;28;20247;-54
2023/07/22 12:39:34;;;;;;;5.35;3.45;;;22.20;52.10;;;;;;5092603;28;20316;-52
2023/07/22 12:42:01;;;;;;;6.10;3.55;;;22.20;52.10;;;;;;5092405;28;20208;-54
2023/07/22 12:44:28;;;;;;;4.68;3.30;;;22.20;52.10;;;;;;5092577;28;20221;-55
2023/07/22 12:46:55;;;;;;;5.70;3.90;;;22.20;52.10;;;;;;5092366;28;20196;-57
2023/07/22 12:49:22;;;;;;;5.30;3.60;;;22.20;52.10;;;;;;5092522;28;20225;-57
2023/07/22 12:51:51;;;;;;;6.15;3.42;;;22.20;52.10;;;;;;5092327;28;20186;-57
2023/07/22 12:54:18;;;;;;;5.63;3.47;;;22.20;52.10;;;;;;5092527;28;20275;-57
2023/07/22 12:56:45;;;;;;;5.03;3.47;;;22.20;52.10;;;;;;5091979;28;20232;-55
2023/07/22 12:59:12;;;;;;;4.85;3.80;;;22.20;52.10;;;;;;5092344;28;20229;-57